Terminal Aerodrome Forecast
Issued by NWS

Home | Current Version | Previous Version | Graphics & Text | Print | Product List | Glossary Off
Versions: 1 2 3 4 5 6 7 8 9 10 11 12 13 14 15 16 17 18 19 20 21 22 23 24 25 26 27 28 29 30 31 32 33 34 35 36 37 38 39 40

975
FTUS43 KDDC 250255 AAA
TAFHYS
TAF AMD
KHYS 250255Z 2503/2524 28023G29KT P6SM VCTS FEW060 SCT090 SCT110CB
     FM250330 18008KT 6SM -TSRA BKN100CB
     FM250700 16005KT P6SM SCT110
     FM251100 19006KT P6SM FEW250=

USA.gov is the U.S. government's official web portal to all federal, state and local government web resources and services.